Time;durP1;ratioP1;P1;durP2;ratioP2;P2;SDS_P1;SDS_P2;PMS_P1;PMS_P2;Temp;Humidity;BMP_temperature;BMP_pressure;BME280_temperature;BME280_humidity;BME280_pressure;Samples;Min_cycle;Max_cycle;Signal;HPM_P1;HPM_P2
2024/03/30 00:01:56;;;;;;;1.88;0.90;;;11.50;1.00;;;;;;5056634;28;37093;-79
2024/03/30 00:04:28;;;;;;;3.20;0.77;;;11.50;1.00;;;;;;5057780;28;38351;-79
2024/03/30 00:06:57;;;;;;;1.05;0.82;;;11.50;1.00;;;;;;5066612;28;39076;-79
2024/03/30 00:09:26;;;;;;;1.27;0.70;;;11.40;1.00;;;;;;5065188;28;39575;-78
2024/03/30 00:11:53;;;;;;;0.68;0.55;;;11.40;1.00;;;;;;5057317;28;38603;-79
2024/03/30 00:14:22;;;;;;;6.28;0.98;;;11.40;1.00;;;;;;5074073;28;40169;-79
2024/03/30 00:16:51;;;;;;;0.60;0.60;;;11.30;1.00;;;;;;5056126;28;37358;-78
2024/03/30 00:19:23;;;;;;;2.42;0.80;;;11.40;1.00;;;;;;5057600;28;37750;-79
2024/03/30 00:21:54;;;;;;;1.38;0.88;;;11.40;1.00;;;;;;5063815;28;37943;-79
2024/03/30 00:24:26;;;;;;;1.63;0.80;;;11.40;1.00;;;;;;5054064;28;38194;-80
2024/03/30 00:27:22;;;;;;;1.58;0.88;;;11.30;1.00;;;;;;5059006;28;41477;-79
2024/03/30 00:29:59;;;;;;;1.92;0.80;;;11.30;1.00;;;;;;5032962;28;48913;-79
2024/03/30 00:32:38;;;;;;;0.77;0.50;;;11.30;1.00;;;;;;5063581;28;36606;-79
2024/03/30 00:35:13;;;;;;;2.08;0.80;;;11.20;1.00;;;;;;5046160;28;38520;-79
2024/03/30 00:37:55;;;;;;;0.82;0.70;;;11.20;1.00;;;;;;5044672;28;39519;-78
2024/03/30 00:41:01;;;;;;;0.60;0.50;;;11.20;1.00;;;;;;5044416;28;50237;-79
2024/03/30 00:43:44;;;;;;;0.70;0.40;;;11.20;1.00;;;;;;5056188;28;38662;-80
2024/03/30 00:46:17;;;;;;;2.30;0.70;;;11.20;1.00;;;;;;5067854;28;40104;-80
2024/03/30 00:48:59;;;;;;;0.80;0.50;;;11.20;1.00;;;;;;5056838;28;39898;-80
2024/03/30 00:51:56;;;;;;;1.50;0.60;;;11.20;1.00;;;;;;5040311;28;48490;-79
2024/03/30 00:54:30;;;;;;;1.85;0.60;;;11.10;1.00;;;;;;5014048;28;37871;-79
2024/03/30 00:57:27;;;;;;;1.98;0.80;;;11.10;1.00;;;;;;5053031;28;40165;-79
2024/03/30 01:00:28;;;;;;;0.73;0.40;;;11.10;1.00;;;;;;5042639;28;39832;-80
2024/03/30 01:03:37;;;;;;;2.22;0.50;;;11.10;1.00;;;;;;5059667;28;50200;-77
2024/03/30 01:06:24;;;;;;;2.40;0.70;;;11.00;1.00;;;;;;5039030;28;36733;-78
2024/03/30 01:09:16;;;;;;;2.63;1.02;;;11.00;1.00;;;;;;5041418;28;50196;-79
2024/03/30 01:11:48;;;;;;;1.15;0.65;;;11.00;1.00;;;;;;5073055;28;49808;-79
2024/03/30 01:14:27;;;;;;;3.10;0.80;;;11.00;1.00;;;;;;5032524;28;39415;-79
2024/03/30 01:17:00;;;;;;;0.82;0.60;;;11.00;1.00;;;;;;5040904;28;36834;-79
2024/03/30 01:19:30;;;;;;;2.17;0.73;;;11.00;1.00;;;;;;5049747;28;38722;-80
2024/03/30 01:22:06;;;;;;;1.13;0.80;;;10.90;1.00;;;;;;5037218;28;37667;-79
2024/03/30 01:24:47;;;;;;;2.13;0.88;;;10.90;1.00;;;;;;5049214;28;48881;-80
2024/03/30 01:27:31;;;;;;;1.60;1.05;;;10.90;1.00;;;;;;5051567;28;35677;-79
2024/03/30 01:30:09;;;;;;;2.10;0.82;;;10.80;1.00;;;;;;5042480;28;38171;-80
2024/03/30 01:32:48;;;;;;;1.88;0.88;;;10.80;1.00;;;;;;5047961;28;47428;-80
2024/03/30 01:35:26;;;;;;;1.13;0.80;;;10.80;1.00;;;;;;5035319;28;38965;-79
2024/03/30 01:38:16;;;;;;;3.70;1.30;;;10.80;1.00;;;;;;5025698;28;37726;-79
2024/03/30 01:41:39;;;;;;;1.98;0.98;;;10.80;1.00;;;;;;5059900;28;39062;-79
2024/03/30 01:44:37;;;;;;;1.58;0.90;;;10.70;1.00;;;;;;5049986;28;49481;-81
2024/03/30 01:47:37;;;;;;;0.77;0.77;;;10.80;2.00;;;;;;5030537;28;38627;-80
2024/03/30 01:50:36;;;;;;;1.67;1.10;;;10.70;1.80;;;;;;5039812;28;35965;-81
2024/03/30 01:53:17;;;;;;;1.20;1.08;;;10.70;4.50;;;;;;5053699;28;39025;-79
2024/03/30 01:55:51;;;;;;;1.30;0.88;;;10.70;3.60;;;;;;5068823;28;38956;-79
2024/03/30 01:58:53;;;;;;;2.45;1.02;;;10.70;3.50;;;;;;5061421;28;38746;-79
2024/03/30 02:04:06;;;;;;;2.50;0.88;;;10.60;4.20;;;;;;5376476;22;20064;-79
2024/03/30 02:06:48;;;;;;;1.80;0.80;;;10.60;1.70;;;;;;5027761;28;48722;-79
2024/03/30 02:09:38;;;;;;;1.52;0.95;;;10.60;1.00;;;;;;5051189;28;39013;-78
2024/03/30 02:12:14;;;;;;;2.85;0.80;;;10.60;1.00;;;;;;5033717;28;37471;-78
2024/03/30 02:15:00;;;;;;;2.15;0.80;;;10.60;1.00;;;;;;5049004;28;40304;-79
2024/03/30 02:17:55;;;;;;;0.88;0.70;;;10.60;1.00;;;;;;5035875;28;39585;-79
2024/03/30 02:20:47;;;;;;;;;;;10.60;1.00;;;;;;5040978;28;38145;-78
2024/03/30 02:23:20;;;;;;;2.80;0.90;;;10.60;1.00;;;;;;5058186;28;38784;-78
2024/03/30 02:26:12;;;;;;;0.95;0.60;;;10.60;1.00;;;;;;5075038;28;39167;-79
2024/03/30 02:28:58;;;;;;;1.85;1.20;;;10.60;1.00;;;;;;5049032;28;48331;-79
2024/03/30 02:31:50;;;;;;;1.05;0.77;;;10.60;1.00;;;;;;5060485;28;48741;-79
2024/03/30 02:35:16;;;;;;;2.78;0.60;;;10.60;1.00;;;;;;5049248;28;38384;-78
2024/03/30 02:37:58;;;;;;;0.65;0.47;;;10.60;1.00;;;;;;5066229;28;40202;-79
2024/03/30 02:40:34;;;;;;;1.27;0.50;;;10.60;1.80;;;;;;5022625;28;38914;-79
2024/03/30 02:46:34;;;;;;;1.58;0.85;;;10.50;9.90;;;;;;5063464;28;49575;-78
2024/03/30 02:49:08;;;;;;;1.25;0.80;;;10.50;15.20;;;;;;5041248;28;47497;-78
2024/03/30 02:51:42;;;;;;;3.33;1.00;;;10.50;16.90;;;;;;5042227;28;50115;-79
2024/03/30 02:55:01;;;;;;;1.02;0.80;;;10.40;23.60;;;;;;5030538;28;37772;-78
2024/03/30 02:57:53;;;;;;;2.90;1.10;;;10.40;29.00;;;;;;5018655;28;37608;-79
2024/03/30 03:00:38;;;;;;;2.75;1.13;;;10.30;36.10;;;;;;5006395;28;40269;-77
2024/03/30 03:03:23;;;;;;;2.58;1.10;;;10.30;42.50;;;;;;5030546;28;50273;-78
2024/03/30 03:06:18;;;;;;;1.52;0.98;;;10.30;50.80;;;;;;5054479;28;38837;-78
2024/03/30 03:09:14;;;;;;;1.50;1.10;;;10.30;57.40;;;;;;5006797;28;37188;-79
2024/03/30 03:12:08;;;;;;;1.67;1.30;;;10.20;61.90;;;;;;5041525;28;39840;-79
2024/03/30 03:15:32;;;;;;;1.30;1.10;;;10.20;60.70;;;;;;5035746;28;49432;-79
2024/03/30 03:18:47;;;;;;;;;;;10.10;61.30;;;;;;4998918;28;39346;-78
2024/03/30 03:21:34;;;;;;;2.30;1.40;;;10.10;63.20;;;;;;5044344;28;38681;-78
2024/03/30 03:24:49;;;;;;;3.20;1.13;;;10.10;62.80;;;;;;5074353;28;40858;-78
2024/03/30 03:27:41;;;;;;;2.33;1.20;;;10.10;61.50;;;;;;5040050;28;39073;-78
2024/03/30 03:31:09;;;;;;;2.67;1.43;;;10.10;58.50;;;;;;5054914;28;37665;-79
2024/03/30 03:33:54;;;;;;;3.50;1.30;;;10.10;61.40;;;;;;5054236;28;49679;-79
2024/03/30 03:36:58;;;;;;;1.73;1.27;;;10.10;63.70;;;;;;5111744;28;40418;-80
2024/03/30 03:40:17;;;;;;;1.03;1.03;;;10.00;68.70;;;;;;5082234;28;39988;-79
2024/03/30 03:42:58;;;;;;;1.83;1.20;;;10.00;72.90;;;;;;5021474;28;38609;-79
2024/03/30 03:46:30;;;;;;;1.50;1.40;;;10.00;77.90;;;;;;5028434;28;38769;-80
2024/03/30 03:49:16;;;;;;;1.43;1.27;;;10.00;76.20;;;;;;5765361;22;49823;-77
2024/03/30 03:51:42;;;;;;;2.07;1.37;;;10.00;75.20;;;;;;5050263;28;37606;-77
2024/03/30 03:54:09;;;;;;;1.60;1.40;;;10.00;70.60;;;;;;5049730;28;37391;-79
2024/03/30 03:56:35;;;;;;;2.40;1.53;;;10.10;66.40;;;;;;5047271;28;36426;-78
2024/03/30 03:59:01;;;;;;;1.50;1.40;;;10.10;72.40;;;;;;5051600;28;38497;-79
2024/03/30 04:01:27;;;;;;;1.47;1.27;;;10.10;67.40;;;;;;5047584;28;47495;-79
2024/03/30 04:11:53;;;;;;;4.43;1.60;;;10.10;66.50;;;;;;5110300;22;20501;-79
2024/03/30 04:14:54;;;;;;;3.08;2.00;;;10.10;65.10;;;;;;4995678;28;41380;-79
2024/03/30 04:17:47;;;;;;;2.23;1.60;;;10.10;63.10;;;;;;4983507;28;39568;-79
2024/03/30 04:20:27;;;;;;;2.38;1.83;;;10.10;78.10;;;;;;5002360;28;40316;-78
2024/03/30 04:22:57;;;;;;;2.03;1.80;;;10.20;87.90;;;;;;5040322;28;39895;-79
2024/03/30 04:25:25;;;;;;;1.50;1.40;;;10.10;86.40;;;;;;5032358;28;38565;-79
2024/03/30 04:27:53;;;;;;;2.00;1.70;;;10.10;87.10;;;;;;5032508;28;37539;-79
2024/03/30 04:30:25;;;;;;;2.57;1.90;;;10.10;90.00;;;;;;5013541;28;39031;-78
2024/03/30 04:33:07;;;;;;;2.78;1.75;;;10.10;91.20;;;;;;5022427;28;38538;-78
2024/03/30 04:36:13;;;;;;;2.10;1.87;;;10.10;92.90;;;;;;5013222;28;49517;-79
2024/03/30 04:39:42;;;;;;;2.80;2.00;;;10.10;94.10;;;;;;4994081;28;50446;-79
2024/03/30 04:42:32;;;;;;;2.47;1.83;;;10.10;99.90;;;;;;4982509;28;49672;-79
2024/03/30 04:45:25;;;;;;;3.23;1.87;;;10.10;99.90;;;;;;5026730;28;39979;-79
2024/03/30 04:47:59;;;;;;;2.10;1.87;;;10.00;99.90;;;;;;5011013;28;38989;-80
2024/03/30 04:50:39;;;;;;;2.10;1.83;;;10.00;99.90;;;;;;5005686;28;40173;-79
2024/03/30 04:53:14;;;;;;;4.10;1.90;;;10.00;99.90;;;;;;5022498;28;40322;-79
2024/03/30 04:56:11;;;;;;;2.17;1.93;;;10.00;99.90;;;;;;4985023;28;38692;-78
2024/03/30 04:59:01;;;;;;;3.53;1.90;;;10.00;99.90;;;;;;4992717;28;49474;-79
2024/03/30 05:02:02;;;;;;;2.70;1.87;;;9.90;99.90;;;;;;4995205;28;50427;-79
2024/03/30 05:04:43;;;;;;;2.50;2.10;;;9.90;99.90;;;;;;5001701;28;49704;-78
2024/03/30 05:08:01;;;;;;;3.43;2.33;;;9.90;99.90;;;;;;5042636;28;39948;-78
2024/03/30 05:10:55;;;;;;;3.50;2.03;;;9.90;99.90;;;;;;5019685;28;38868;-80
2024/03/30 05:14:04;;;;;;;2.63;2.20;;;9.90;99.90;;;;;;5032157;28;49544;-78
2024/03/30 05:17:08;;;;;;;2.10;1.77;;;9.90;99.90;;;;;;4993068;28;40623;-80
2024/03/30 05:23:12;;;;;;;2.87;2.43;;;9.80;99.90;;;;;;5028485;28;50038;-78
2024/03/30 05:25:42;;;;;;;2.60;2.10;;;9.80;99.90;;;;;;5016494;28;37597;-78
2024/03/30 05:28:10;;;;;;;4.33;2.30;;;9.80;99.90;;;;;;5021901;28;41674;-78
2024/03/30 05:30:38;;;;;;;4.50;2.67;;;9.80;99.90;;;;;;5037725;28;37617;-79
2024/03/30 05:33:08;;;;;;;2.10;1.70;;;9.80;99.90;;;;;;5020663;28;37606;-79
2024/03/30 05:35:36;;;;;;;2.43;2.23;;;9.80;99.90;;;;;;5017855;28;37524;-78
2024/03/30 05:38:03;;;;;;;3.00;2.50;;;9.80;99.90;;;;;;5014583;28;39223;-78
2024/03/30 05:40:34;;;;;;;2.50;2.17;;;9.80;99.90;;;;;;5035462;28;38263;-78
2024/03/30 05:43:01;;;;;;;3.20;2.43;;;9.80;99.90;;;;;;5033084;28;40324;-78
2024/03/30 05:45:28;;;;;;;3.63;2.03;;;9.70;99.90;;;;;;5033139;28;47169;-77
2024/03/30 05:47:55;;;;;;;3.63;2.80;;;9.70;99.90;;;;;;5009607;28;37610;-78
2024/03/30 05:50:23;;;;;;;3.83;2.87;;;9.60;99.90;;;;;;5011461;28;37977;-78
2024/03/30 05:52:49;;;;;;;4.93;3.10;;;9.60;99.90;;;;;;5026093;28;38212;-78
2024/03/30 05:55:15;;;;;;;3.30;2.77;;;9.60;99.90;;;;;;5010305;28;37567;-77
2024/03/30 05:57:42;;;;;;;4.10;3.00;;;9.60;99.90;;;;;;5004520;28;39198;-76
2024/03/30 06:00:10;;;;;;;3.20;2.80;;;9.50;99.90;;;;;;5015279;28;37194;-76
2024/03/30 06:02:41;;;;;;;4.77;2.90;;;9.50;99.90;;;;;;4997642;28;38743;-77
2024/03/30 06:05:07;;;;;;;4.03;2.80;;;9.50;99.90;;;;;;5011317;28;36945;-76
2024/03/30 06:07:34;;;;;;;3.17;2.87;;;9.50;99.90;;;;;;4997392;28;37803;-76
2024/03/30 06:10:01;;;;;;;3.43;2.70;;;9.40;99.90;;;;;;5005531;28;38298;-76
2024/03/30 06:12:27;;;;;;;5.40;4.13;;;9.50;99.90;;;;;;5006030;28;37046;-76
2024/03/30 06:14:53;;;;;;;5.33;4.03;;;9.50;99.90;;;;;;5011790;28;36224;-75
2024/03/30 06:17:19;;;;;;;6.17;3.97;;;9.50;99.90;;;;;;5014950;28;37523;-75
2024/03/30 06:19:45;;;;;;;6.63;3.72;;;9.50;99.90;;;;;;5006771;28;38806;-74
2024/03/30 06:22:11;;;;;;;6.77;4.77;;;9.50;99.90;;;;;;5017500;28;35077;-74
2024/03/30 06:24:38;;;;;;;6.63;5.30;;;9.50;99.90;;;;;;5006087;28;38481;-74
2024/03/30 06:27:09;;;;;;;4.87;4.00;;;9.50;99.90;;;;;;5005253;28;37787;-75
2024/03/30 06:29:36;;;;;;;4.50;4.10;;;9.50;99.90;;;;;;5005317;28;37189;-74
2024/03/30 06:32:04;;;;;;;5.43;4.03;;;9.50;99.90;;;;;;5014284;28;39761;-74
2024/03/30 06:34:30;;;;;;;6.57;4.18;;;9.50;99.90;;;;;;5003737;28;37216;-74
2024/03/30 06:36:57;;;;;;;5.57;4.30;;;9.60;99.90;;;;;;5006822;28;39665;-74
2024/03/30 06:39:23;;;;;;;4.83;4.03;;;9.60;99.90;;;;;;4999181;28;38254;-75
2024/03/30 06:44:34;;;;;;;5.18;4.63;;;9.60;99.90;;;;;;4998135;28;49990;-74
2024/03/30 06:47:00;;;;;;;5.60;4.70;;;9.50;99.90;;;;;;5002056;28;39782;-74
2024/03/30 06:49:26;;;;;;;4.20;3.80;;;9.60;99.90;;;;;;4999593;28;38819;-74
2024/03/30 06:51:52;;;;;;;5.17;4.50;;;9.60;99.90;;;;;;5013677;28;38372;-74
2024/03/30 06:54:20;;;;;;;5.77;4.33;;;9.60;99.90;;;;;;5000170;28;37666;-74
2024/03/30 06:56:46;;;;;;;5.83;4.47;;;9.60;99.90;;;;;;5011806;28;38363;-74
2024/03/30 06:59:12;;;;;;;7.47;4.80;;;9.60;99.90;;;;;;5005347;28;38370;-74
2024/03/30 07:01:39;;;;;;;6.00;5.40;;;9.60;99.90;;;;;;5003159;28;37843;-74
2024/03/30 07:04:05;;;;;;;6.33;5.00;;;9.50;99.90;;;;;;5003480;28;37714;-74
2024/03/30 07:06:31;;;;;;;5.33;4.83;;;9.60;99.90;;;;;;4997757;28;40111;-73
2024/03/30 07:08:58;;;;;;;5.77;5.23;;;9.60;99.90;;;;;;5012063;28;40048;-74
2024/03/30 07:11:24;;;;;;;5.97;5.18;;;9.60;99.90;;;;;;4999051;28;38725;-74
2024/03/30 07:13:51;;;;;;;6.90;5.83;;;9.70;99.90;;;;;;4995427;28;37113;-74
2024/03/30 07:16:20;;;;;;;8.93;7.07;;;9.70;99.90;;;;;;4995173;28;39829;-74
2024/03/30 07:18:46;;;;;;;8.40;7.60;;;9.70;99.90;;;;;;4997862;28;38709;-73
2024/03/30 07:21:12;;;;;;;10.23;8.60;;;9.60;99.90;;;;;;5001269;28;38776;-73
2024/03/30 07:23:38;;;;;;;10.57;7.88;;;9.60;99.90;;;;;;5012554;28;37786;-74
2024/03/30 07:26:05;;;;;;;11.18;9.98;;;9.60;99.90;;;;;;5000051;28;39033;-74
2024/03/30 07:28:32;;;;;;;12.63;10.77;;;9.60;99.90;;;;;;4992632;28;38699;-74
2024/03/30 07:31:05;;;;;;;12.65;10.52;;;9.60;99.90;;;;;;5011286;28;37502;-74
2024/03/30 07:33:34;;;;;;;11.50;10.30;;;9.60;99.90;;;;;;4995820;28;49526;-74
2024/03/30 07:36:00;;;;;;;16.43;12.07;;;9.60;99.90;;;;;;5023405;28;39816;-74
2024/03/30 07:38:31;;;;;;;12.03;10.77;;;9.60;99.90;;;;;;4995457;28;40214;-74
2024/03/30 07:40:58;;;;;;;17.17;13.68;;;9.60;99.90;;;;;;5001327;28;38528;-74
2024/03/30 07:43:25;;;;;;;15.43;12.57;;;9.60;99.90;;;;;;4994080;28;37616;-73
2024/03/30 07:45:54;;;;;;;14.43;12.40;;;9.70;99.90;;;;;;4997939;28;39935;-73
2024/03/30 07:48:20;;;;;;;13.90;12.55;;;9.70;99.90;;;;;;4993462;28;38641;-74
2024/03/30 07:50:46;;;;;;;14.73;13.10;;;9.70;99.90;;;;;;5011068;28;37997;-74
2024/03/30 07:53:12;;;;;;;13.55;11.75;;;9.60;99.90;;;;;;5005836;28;40741;-74
2024/03/30 07:55:39;;;;;;;14.15;11.82;;;9.60;99.90;;;;;;5007339;28;39013;-74
2024/03/30 07:58:05;;;;;;;13.05;11.57;;;9.50;99.90;;;;;;4998450;28;39793;-73
2024/03/30 08:00:31;;;;;;;15.07;12.03;;;9.50;99.90;;;;;;4995512;28;38193;-74
2024/03/30 08:03:03;;;;;;;14.05;12.55;;;9.60;99.90;;;;;;4998162;28;37422;-74
2024/03/30 08:05:31;;;;;;;14.48;11.95;;;9.50;99.90;;;;;;4999183;28;49098;-74
2024/03/30 08:07:57;;;;;;;14.68;12.70;;;9.50;99.90;;;;;;5002256;28;39467;-74
2024/03/30 08:10:23;;;;;;;15.00;12.93;;;9.50;99.90;;;;;;5001325;28;38801;-74
2024/03/30 08:12:50;;;;;;;14.63;12.57;;;9.50;99.90;;;;;;5003675;28;38777;-74
2024/03/30 08:15:17;;;;;;;15.63;12.55;;;9.50;99.90;;;;;;5003225;28;39865;-75
2024/03/30 08:17:43;;;;;;;13.60;12.17;;;9.60;99.90;;;;;;4995157;28;39082;-74
2024/03/30 08:20:10;;;;;;;15.47;13.23;;;9.50;99.90;;;;;;5019474;28;40187;-75
2024/03/30 08:22:37;;;;;;;15.38;12.90;;;9.60;99.90;;;;;;5003916;28;38236;-74
2024/03/30 08:25:04;;;;;;;15.67;14.03;;;9.50;99.90;;;;;;5012290;28;36410;-74
2024/03/30 08:27:32;;;;;;;15.23;13.63;;;9.60;99.90;;;;;;4998524;28;47786;-74
2024/03/30 08:29:59;;;;;;;15.75;13.85;;;9.60;99.90;;;;;;5001515;28;38274;-74
2024/03/30 08:32:25;;;;;;;18.57;15.13;;;9.60;99.90;;;;;;4997006;28;36063;-74
2024/03/30 08:34:52;;;;;;;22.10;18.23;;;9.60;99.90;;;;;;5003530;28;38996;-74
2024/03/30 08:37:18;;;;;;;19.13;16.35;;;9.60;99.90;;;;;;5016788;28;39682;-74
2024/03/30 08:39:44;;;;;;;19.63;16.80;;;9.60;99.90;;;;;;5002629;28;39092;-74
2024/03/30 08:42:10;;;;;;;19.67;17.52;;;9.70;99.90;;;;;;5016084;28;38339;-74
2024/03/30 08:44:36;;;;;;;21.23;19.13;;;9.60;99.90;;;;;;5002243;28;41548;-74
2024/03/30 08:47:02;;;;;;;22.42;19.52;;;9.60;99.90;;;;;;5000880;28;38249;-74
2024/03/30 08:49:28;;;;;;;25.10;21.17;;;9.70;99.90;;;;;;4997838;28;36518;-74
2024/03/30 08:51:55;;;;;;;21.50;19.27;;;9.70;99.90;;;;;;4998034;28;37164;-74
2024/03/30 08:54:21;;;;;;;27.80;22.15;;;9.70;99.90;;;;;;5000495;28;38774;-74
2024/03/30 08:56:48;;;;;;;23.30;19.63;;;9.70;99.90;;;;;;5003544;28;37973;-75
2024/03/30 08:59:14;;;;;;;23.88;19.92;;;9.70;99.90;;;;;;4997831;28;37665;-75
2024/03/30 09:01:40;;;;;;;28.25;20.67;;;9.60;99.90;;;;;;5014029;28;37351;-75
2024/03/30 09:04:06;;;;;;;30.67;21.73;;;9.60;99.90;;;;;;5002240;28;40704;-74
2024/03/30 09:06:32;;;;;;;29.77;20.80;;;9.50;99.90;;;;;;4999169;28;38610;-74
2024/03/30 09:08:58;;;;;;;30.00;22.17;;;9.40;99.90;;;;;;5004266;28;38601;-75
2024/03/30 09:11:24;;;;;;;25.47;19.03;;;9.40;99.90;;;;;;4997700;28;38126;-75
2024/03/30 09:13:50;;;;;;;29.10;20.43;;;9.40;99.90;;;;;;5001228;28;37570;-75
2024/03/30 09:16:17;;;;;;;26.47;18.90;;;9.40;99.90;;;;;;5002253;28;39409;-74
2024/03/30 09:18:43;;;;;;;26.57;17.47;;;9.40;99.90;;;;;;5006717;28;39323;-74
2024/03/30 09:21:09;;;;;;;28.80;18.83;;;9.40;99.90;;;;;;5007705;28;37216;-75
2024/03/30 09:23:35;;;;;;;26.17;16.97;;;9.40;99.90;;;;;;5003885;28;40844;-74
2024/03/30 09:26:01;;;;;;;31.33;17.27;;;9.40;99.90;;;;;;5005534;28;38504;-74
2024/03/30 09:28:28;;;;;;;20.80;14.37;;;9.40;99.90;;;;;;5001173;28;38707;-74
2024/03/30 09:30:54;;;;;;;24.00;15.27;;;9.40;99.90;;;;;;5004321;28;37841;-75
2024/03/30 09:33:20;;;;;;;19.73;12.83;;;9.40;99.90;;;;;;5005852;28;40368;-75
2024/03/30 09:35:46;;;;;;;24.10;14.77;;;9.40;99.90;;;;;;5015964;28;39858;-75
2024/03/30 09:38:12;;;;;;;18.87;12.77;;;9.40;99.90;;;;;;5007334;28;38822;-75
2024/03/30 09:40:51;;;;;;;20.65;13.63;;;9.40;99.90;;;;;;5017380;28;38254;-75
2024/03/30 09:43:18;;;;;;;22.55;14.80;;;9.40;99.90;;;;;;5020827;28;38979;-79
2024/03/30 09:45:45;;;;;;;21.50;15.27;;;9.40;99.90;;;;;;5016362;28;40056;-79
2024/03/30 09:48:13;;;;;;;19.20;13.03;;;9.40;99.90;;;;;;5008455;28;38313;-75
2024/03/30 09:50:40;;;;;;;20.77;14.73;;;9.40;99.90;;;;;;5009549;28;36613;-75
2024/03/30 09:59:23;;;;;;;20.23;14.68;;;9.60;99.90;;;;;;6100474;22;20027;-78
2024/03/30 10:28:03;;;;;;;16.83;13.20;;;9.70;99.90;;;;;;6080717;23;21324;31
2024/03/30 10:30:30;;;;;;;16.40;13.95;;;9.70;99.90;;;;;;4949875;28;47215;-80
2024/03/30 10:33:10;;;;;;;18.57;15.47;;;9.80;99.90;;;;;;4930783;29;37208;-80
2024/03/30 10:35:43;;;;;;;19.20;15.90;;;9.80;99.90;;;;;;4947846;28;47355;-81
2024/03/30 10:38:17;;;;;;;;;;;9.90;99.90;;;;;;4921783;28;36468;-82
2024/03/30 10:41:21;;;;;;;19.70;16.02;;;9.90;99.90;;;;;;4915465;28;49750;-81
2024/03/30 10:43:50;;;;;;;28.15;20.35;;;9.90;99.90;;;;;;4913697;28;50364;-81
2024/03/30 10:46:40;;;;;;;22.95;18.95;;;9.90;99.90;;;;;;4928540;28;36292;-81
2024/03/30 10:49:27;;;;;;;17.02;14.57;;;9.80;99.90;;;;;;4928833;28;37557;-80
2024/03/30 10:52:20;;;;;;;20.57;16.13;;;9.80;99.90;;;;;;4946325;28;39390;-80
2024/03/30 10:55:22;;;;;;;18.95;16.48;;;9.70;99.90;;;;;;4930016;28;48784;-81
2024/03/30 10:58:25;;;;;;;22.10;17.13;;;9.80;99.90;;;;;;4910536;28;50107;-81
2024/03/30 11:01:16;;;;;;;19.13;15.10;;;9.80;99.90;;;;;;4903915;28;49874;-81
2024/03/30 11:03:49;;;;;;;14.50;12.73;;;9.80;99.90;;;;;;4936863;28;49384;-81
2024/03/30 11:06:26;;;;;;;18.50;13.37;;;9.70;99.90;;;;;;4929436;28;39413;-80
2024/03/30 11:08:54;;;;;;;15.37;12.70;;;9.80;99.90;;;;;;4940512;28;38561;-79
2024/03/30 11:11:21;;;;;;;15.17;10.63;;;9.80;99.90;;;;;;4928547;28;37545;-79
2024/03/30 11:13:47;;;;;;;13.23;10.07;;;9.70;99.90;;;;;;4938988;28;39570;-79
2024/03/30 11:16:14;;;;;;;12.10;8.90;;;9.70;99.90;;;;;;4927189;28;37394;-79
2024/03/30 11:19:07;;;;;;;10.97;8.10;;;9.70;99.90;;;;;;4928789;29;37332;-80
2024/03/30 11:21:51;;;;;;;7.03;5.60;;;9.70;99.90;;;;;;4945261;28;48076;-80
2024/03/30 11:24:23;;;;;;;6.70;5.63;;;9.50;99.90;;;;;;4930692;28;39593;-80
2024/03/30 11:27:00;;;;;;;6.00;5.05;;;9.50;99.90;;;;;;4935362;28;38266;-79
2024/03/30 11:29:29;;;;;;;5.43;4.80;;;9.50;99.90;;;;;;4923305;29;37425;-78
2024/03/30 11:32:07;;;;;;;5.30;4.80;;;9.50;99.90;;;;;;4934441;28;36180;-79
2024/03/30 11:34:56;;;;;;;8.20;6.03;;;9.50;99.90;;;;;;4932249;28;46914;-78
2024/03/30 11:37:25;;;;;;;10.43;4.50;;;9.60;99.90;;;;;;4933345;28;37350;-79
2024/03/30 11:40:16;;;;;;;4.83;3.73;;;9.60;99.90;;;;;;4923331;28;38369;-79
2024/03/30 11:42:48;;;;;;;4.83;4.23;;;9.60;99.90;;;;;;4927736;28;47320;-80
2024/03/30 11:45:26;;;;;;;5.22;4.65;;;9.60;99.90;;;;;;4921592;28;40695;-79
2024/03/30 11:47:54;;;;;;;6.13;5.23;;;9.60;99.90;;;;;;4919002;29;37666;-80
2024/03/30 11:50:22;;;;;;;4.60;4.00;;;9.70;99.90;;;;;;4920726;29;38875;-78
2024/03/30 11:52:55;;;;;;;5.73;5.13;;;9.70;99.90;;;;;;4916146;28;36766;-79
2024/03/30 11:55:30;;;;;;;4.30;3.90;;;9.70;99.90;;;;;;4915780;28;39571;-78
2024/03/30 11:57:59;;;;;;;5.27;4.50;;;9.80;99.90;;;;;;4933191;28;39432;-79
2024/03/30 12:00:28;;;;;;;4.43;3.33;;;9.80;99.90;;;;;;4911412;28;38221;-78
2024/03/30 12:03:04;;;;;;;3.67;3.25;;;9.80;99.90;;;;;;4926312;28;36182;-78
2024/03/30 12:05:30;;;;;;;2.38;2.17;;;9.70;99.90;;;;;;4908041;29;47920;-78
2024/03/30 12:07:57;;;;;;;2.57;1.87;;;9.70;99.90;;;;;;4924088;28;36168;-78
2024/03/30 12:10:23;;;;;;;2.67;1.73;;;9.70;99.90;;;;;;4923760;28;38604;-78
2024/03/30 12:13:00;;;;;;;2.33;1.93;;;9.70;99.90;;;;;;4922163;28;39276;-78
2024/03/30 12:15:27;;;;;;;2.23;2.03;;;9.70;99.90;;;;;;4929071;28;39658;-78
2024/03/30 12:17:53;;;;;;;2.27;2.07;;;9.70;99.90;;;;;;4916435;29;38869;-78
2024/03/30 12:20:20;;;;;;;3.22;3.00;;;9.70;99.90;;;;;;4916074;28;37932;-77
2024/03/30 12:22:46;;;;;;;3.50;3.20;;;9.70;99.90;;;;;;4922310;28;38504;-77
2024/03/30 12:25:15;;;;;;;3.03;2.83;;;9.70;99.90;;;;;;4929019;28;39061;-78
2024/03/30 12:27:41;;;;;;;2.33;2.13;;;9.60;99.90;;;;;;4926300;28;38451;-77
2024/03/30 12:30:09;;;;;;;1.63;1.53;;;9.60;99.90;;;;;;4908414;28;36896;-77
2024/03/30 12:32:37;;;;;;;2.77;0.80;;;9.50;99.90;;;;;;4925823;28;38909;-78
2024/03/30 12:35:03;;;;;;;1.47;0.60;;;9.50;99.90;;;;;;4911891;29;40229;-78
2024/03/30 12:37:30;;;;;;;3.27;1.00;;;9.40;99.90;;;;;;4928631;28;46999;-78
2024/03/30 12:39:56;;;;;;;1.50;0.90;;;9.40;99.90;;;;;;4926364;28;39852;-77
2024/03/30 12:42:24;;;;;;;1.90;1.48;;;9.50;99.90;;;;;;4911621;28;37391;-78
2024/03/30 12:44:57;;;;;;;4.22;2.00;;;9.50;99.90;;;;;;4923722;28;40830;-78
2024/03/30 12:47:23;;;;;;;;;;;9.60;99.90;;;;;;4911265;28;38128;-77
2024/03/30 12:49:49;;;;;;;2.97;2.28;;;9.70;99.90;;;;;;4931196;28;38726;-77
2024/03/30 12:52:15;;;;;;;3.47;2.00;;;9.80;99.90;;;;;;4930292;28;37518;-77
2024/03/30 12:54:42;;;;;;;2.05;1.60;;;9.80;99.90;;;;;;4908102;29;37769;-77
2024/03/30 12:57:09;;;;;;;1.93;1.70;;;9.90;99.90;;;;;;4918129;28;39026;-77
2024/03/30 12:59:35;;;;;;;1.95;1.50;;;9.80;99.90;;;;;;4907064;29;37098;-76
2024/03/30 13:02:06;;;;;;;5.60;3.42;;;9.80;99.90;;;;;;4916353;28;36147;-77
2024/03/30 13:04:32;;;;;;;2.30;1.70;;;9.60;99.90;;;;;;4915352;29;37585;-77
2024/03/30 13:06:58;;;;;;;1.52;1.35;;;9.70;99.90;;;;;;4931270;28;37645;-77
2024/03/30 13:09:25;;;;;;;1.48;1.38;;;9.70;99.90;;;;;;4923421;28;38312;-77
2024/03/30 13:11:51;;;;;;;2.10;1.20;;;9.70;99.90;;;;;;4935166;28;36288;-77
2024/03/30 13:14:17;;;;;;;0.90;0.60;;;9.70;99.90;;;;;;4930007;28;36174;-76
2024/03/30 13:16:44;;;;;;;1.35;0.98;;;9.60;99.90;;;;;;4927053;28;37897;-77
2024/03/30 13:19:14;;;;;;;0.65;0.57;;;9.70;99.90;;;;;;4922524;28;37722;-78
2024/03/30 13:21:42;;;;;;;3.15;0.75;;;9.60;99.90;;;;;;4930341;28;36214;-76
2024/03/30 13:24:09;;;;;;;1.48;0.80;;;9.60;99.90;;;;;;4914957;28;39166;-77
2024/03/30 13:26:35;;;;;;;1.50;0.80;;;9.70;99.90;;;;;;4924221;28;37744;-77
2024/03/30 13:29:02;;;;;;;1.85;0.95;;;9.70;99.90;;;;;;4912237;29;38855;-77
2024/03/30 13:31:28;;;;;;;1.38;0.90;;;9.80;99.90;;;;;;4916479;28;37300;-77
2024/03/30 13:33:55;;;;;;;1.75;0.80;;;9.80;99.90;;;;;;4925812;28;37761;-77
2024/03/30 13:36:22;;;;;;;1.00;0.90;;;9.80;99.90;;;;;;4914075;28;37240;-77
2024/03/30 13:38:48;;;;;;;2.58;1.15;;;9.80;99.90;;;;;;4927010;28;39850;-77
2024/03/30 13:41:14;;;;;;;2.47;0.75;;;9.80;99.90;;;;;;4928284;28;38760;-77
2024/03/30 13:43:41;;;;;;;1.08;0.75;;;9.70;99.90;;;;;;4933446;28;37203;-77
2024/03/30 13:46:07;;;;;;;2.08;0.80;;;9.70;99.90;;;;;;4926080;28;39932;-77
2024/03/30 13:48:34;;;;;;;1.25;1.00;;;9.70;99.90;;;;;;4919151;28;37651;-77
2024/03/30 13:51:00;;;;;;;1.10;1.00;;;9.80;99.90;;;;;;4918292;28;36403;-77
2024/03/30 13:53:26;;;;;;;2.28;1.17;;;9.80;99.90;;;;;;4911533;28;38834;-77
2024/03/30 13:55:52;;;;;;;1.27;1.13;;;9.80;99.90;;;;;;4915904;28;39395;-77
2024/03/30 13:58:25;;;;;;;2.60;1.20;;;9.90;99.90;;;;;;4915630;28;39091;-77
2024/03/30 14:00:54;;;;;;;2.55;1.23;;;9.90;99.90;;;;;;4914835;28;36009;-77
2024/03/30 14:03:21;;;;;;;2.20;1.10;;;9.90;99.90;;;;;;4914764;28;38822;-77
2024/03/30 14:05:47;;;;;;;3.42;1.13;;;9.90;99.90;;;;;;4918394;29;39552;-78
2024/03/30 14:08:13;;;;;;;2.88;1.20;;;10.00;99.90;;;;;;4933278;28;36840;-77
2024/03/30 14:10:39;;;;;;;2.47;1.10;;;9.90;99.90;;;;;;4932338;29;36796;-77
2024/03/30 14:13:05;;;;;;;1.98;0.75;;;10.00;99.90;;;;;;4928026;28;40132;-77
2024/03/30 14:15:32;;;;;;;1.15;0.90;;;9.90;99.90;;;;;;4916703;28;37856;-77
2024/03/30 14:17:58;;;;;;;2.17;0.70;;;10.00;99.90;;;;;;4923245;28;36977;-78
2024/03/30 14:20:24;;;;;;;1.58;0.32;;;9.90;99.90;;;;;;4919351;28;36090;-77
2024/03/30 14:22:50;;;;;;;0.75;0.30;;;9.80;99.90;;;;;;4929033;28;40606;-78
2024/03/30 14:25:16;;;;;;;1.27;0.35;;;9.70;99.90;;;;;;4936015;28;38564;-78